Arthur, Arkansas
Current Conditions -  °F | °C
As of 7:29 AM on Thursday 30 Oct 2014 (Local Time) from KRUE Reporting Station
Haze Haze  
Wind Chill:   Ceiling: 100
Heat Index:   Visibility: 0.75mi
Dew Point:   Wind: 0mph
Humidity: 96%   Direction: NA
Pressure: 30.16"   Gusts: NA
Location:  35.2722°N, 92.6766°W
Report Text: KRUE 301229Z AUTO 00000KT 3/4SM BR VV001 06/05 A3016 RMK AO2 T00560050 $
Loading
Personal Weather Stations






























Interactive Weather Map
Tropical Storm Tracking
New forecast layout! Learn more

10-Day Weather Forecast

Advertisements
Track Severe Weather on mobile